sensor_id;sensor_type;location;lat;lon;timestamp;P1;durP1;ratioP1;P2;durP2;ratioP2
58466;SDS011;44255;49.244;7.726;2023-01-26T04:31:14;9.27;;;4.65;;
58466;SDS011;44255;49.244;7.726;2023-01-26T04:33:40;8.18;;;3.95;;
58466;SDS011;44255;49.244;7.726;2023-01-26T04:38:32;7.03;;;3.77;;
58466;SDS011;44255;49.244;7.726;2023-01-26T04:43:23;7.45;;;3.55;;
58466;SDS011;44255;49.244;7.726;2023-01-26T04:48:30;10.35;;;3.88;;
58466;SDS011;44255;49.244;7.726;2023-01-26T04:53:22;6.85;;;3.50;;
58466;SDS011;44255;49.244;7.726;2023-01-26T04:58:12;7.70;;;3.92;;
58466;SDS011;44255;49.244;7.726;2023-01-26T05:03:03;8.18;;;4.03;;
58466;SDS011;44255;49.244;7.726;2023-01-26T05:07:53;9.63;;;4.15;;
58466;SDS011;44255;49.244;7.726;2023-01-26T05:12:44;31.02;;;10.73;;
58466;SDS011;44255;49.244;7.726;2023-01-26T05:17:34;12.10;;;5.25;;
58466;SDS011;44255;49.244;7.726;2023-01-26T05:22:25;6.68;;;3.22;;
58466;SDS011;44255;49.244;7.726;2023-01-26T05:24:51;6.07;;;3.25;;
58466;SDS011;44255;49.244;7.726;2023-01-26T05:29:48;8.45;;;4.18;;
58466;SDS011;44255;49.244;7.726;2023-01-26T05:32:14;5.78;;;3.30;;
58466;SDS011;44255;49.244;7.726;2023-01-26T05:34:39;14.45;;;5.30;;
58466;SDS011;44255;49.244;7.726;2023-01-26T05:39:30;14.38;;;5.53;;
58466;SDS011;44255;49.244;7.726;2023-01-26T05:44:21;13.45;;;4.95;;
58466;SDS011;44255;49.244;7.726;2023-01-26T05:46:47;8.30;;;3.60;;
58466;SDS011;44255;49.244;7.726;2023-01-26T05:51:38;5.90;;;2.97;;
58466;SDS011;44255;49.244;7.726;2023-01-26T05:56:28;7.70;;;4.00;;
58466;SDS011;44255;49.244;7.726;2023-01-26T06:01:19;6.95;;;3.47;;
58466;SDS011;44255;49.244;7.726;2023-01-26T06:06:09;9.60;;;3.85;;
58466;SDS011;44255;49.244;7.726;2023-01-26T06:10:59;8.80;;;3.92;;
58466;SDS011;44255;49.244;7.726;2023-01-26T06:13:28;10.88;;;5.22;;
58466;SDS011;44255;49.244;7.726;2023-01-26T06:15:53;12.82;;;5.22;;
58466;SDS011;44255;49.244;7.726;2023-01-26T06:18:19;13.38;;;5.00;;
58466;SDS011;44255;49.244;7.726;2023-01-26T06:23:09;10.77;;;4.63;;
58466;SDS011;44255;49.244;7.726;2023-01-26T06:25:36;10.30;;;4.38;;
58466;SDS011;44255;49.244;7.726;2023-01-26T06:28:04;5.35;;;2.88;;
58466;SDS011;44255;49.244;7.726;2023-01-26T06:30:30;6.38;;;2.90;;
58466;SDS011;44255;49.244;7.726;2023-01-26T06:32:55;7.70;;;3.50;;
58466;SDS011;44255;49.244;7.726;2023-01-26T06:37:49;5.38;;;2.97;;
58466;SDS011;44255;49.244;7.726;2023-01-26T06:40:15;6.22;;;3.83;;
58466;SDS011;44255;49.244;7.726;2023-01-26T06:45:12;6.82;;;3.38;;
58466;SDS011;44255;49.244;7.726;2023-01-26T06:50:08;4.78;;;2.78;;
58466;SDS011;44255;49.244;7.726;2023-01-26T06:54:59;5.22;;;2.58;;
58466;SDS011;44255;49.244;7.726;2023-01-26T06:57:27;5.25;;;3.28;;
58466;SDS011;44255;49.244;7.726;2023-01-26T07:02:18;4.38;;;2.38;;
58466;SDS011;44255;49.244;7.726;2023-01-26T07:04:45;4.90;;;2.78;;
58466;SDS011;44255;49.244;7.726;2023-01-26T07:07:11;4.55;;;2.45;;
58466;SDS011;44255;49.244;7.726;2023-01-26T07:12:02;5.32;;;2.40;;
58466;SDS011;44255;49.244;7.726;2023-01-26T07:16:52;5.63;;;2.67;;
58466;SDS011;44255;49.244;7.726;2023-01-26T07:21:42;6.05;;;2.70;;
58466;SDS011;44255;49.244;7.726;2023-01-26T07:26:33;4.88;;;2.38;;
58466;SDS011;44255;49.244;7.726;2023-01-26T07:31:24;5.20;;;2.70;;
58466;SDS011;44255;49.244;7.726;2023-01-26T07:36:14;6.63;;;3.22;;
58466;SDS011;44255;49.244;7.726;2023-01-26T07:41:05;5.13;;;2.80;;
58466;SDS011;44255;49.244;7.726;2023-01-26T07:43:33;4.05;;;2.17;;
58466;SDS011;44255;49.244;7.726;2023-01-26T07:45:59;3.13;;;2.13;;
58466;SDS011;44255;49.244;7.726;2023-01-26T07:50:50;3.90;;;2.05;;
58466;SDS011;44255;49.244;7.726;2023-01-26T07:55:46;4.68;;;2.30;;
58466;SDS011;44255;49.244;7.726;2023-01-26T07:58:13;9.02;;;3.22;;
58466;SDS011;44255;49.244;7.726;2023-01-26T08:03:04;5.47;;;3.00;;
58466;SDS011;44255;49.244;7.726;2023-01-26T08:07:58;11.38;;;5.63;;
58466;SDS011;44255;49.244;7.726;2023-01-26T08:10:24;8.20;;;3.78;;
58466;SDS011;44255;49.244;7.726;2023-01-26T08:12:50;6.07;;;3.55;;
58466;SDS011;44255;49.244;7.726;2023-01-26T08:17:41;5.60;;;2.80;;
58466;SDS011;44255;49.244;7.726;2023-01-26T08:22:31;3.90;;;2.13;;
58466;SDS011;44255;49.244;7.726;2023-01-26T08:27:22;7.43;;;2.88;;
58466;SDS011;44255;49.244;7.726;2023-01-26T08:32:12;5.28;;;3.17;;
58466;SDS011;44255;49.244;7.726;2023-01-26T08:37:03;5.45;;;2.92;;
58466;SDS011;44255;49.244;7.726;2023-01-26T08:41:54;5.22;;;3.08;;
58466;SDS011;44255;49.244;7.726;2023-01-26T08:46:45;3.47;;;2.13;;
58466;SDS011;44255;49.244;7.726;2023-01-26T08:51:36;6.20;;;2.70;;
58466;SDS011;44255;49.244;7.726;2023-01-26T08:56:26;3.67;;;2.10;;
58466;SDS011;44255;49.244;7.726;2023-01-26T09:01:17;6.78;;;3.13;;
58466;SDS011;44255;49.244;7.726;2023-01-26T09:06:09;5.55;;;2.45;;
58466;SDS011;44255;49.244;7.726;2023-01-26T09:08:35;4.38;;;2.45;;
58466;SDS011;44255;49.244;7.726;2023-01-26T09:13:26;4.05;;;2.20;;
58466;SDS011;44255;49.244;7.726;2023-01-26T09:18:17;3.28;;;2.30;;
58466;SDS011;44255;49.244;7.726;2023-01-26T09:23:07;4.85;;;3.03;;
58466;SDS011;44255;49.244;7.726;2023-01-26T09:25:37;4.68;;;2.70;;
58466;SDS011;44255;49.244;7.726;2023-01-26T09:28:04;7.00;;;3.28;;
58466;SDS011;44255;49.244;7.726;2023-01-26T09:30:30;5.00;;;2.70;;
58466;SDS011;44255;49.244;7.726;2023-01-26T09:35:28;5.57;;;2.83;;
58466;SDS011;44255;49.244;7.726;2023-01-26T09:37:54;6.03;;;3.30;;
58466;SDS011;44255;49.244;7.726;2023-01-26T09:43:13;4.57;;;2.53;;
58466;SDS011;44255;49.244;7.726;2023-01-26T09:46:13;4.85;;;3.10;;
58466;SDS011;44255;49.244;7.726;2023-01-26T09:51:32;5.38;;;3.00;;
58466;SDS011;44255;49.244;7.726;2023-01-26T09:54:47;5.75;;;3.05;;
58466;SDS011;44255;49.244;7.726;2023-01-26T09:56:55;3.90;;;2.72;;
58466;SDS011;44255;49.244;7.726;2023-01-26T10:04:43;4.28;;;2.67;;
58466;SDS011;44255;49.244;7.726;2023-01-26T10:07:13;4.55;;;2.60;;
58466;SDS011;44255;49.244;7.726;2023-01-26T10:12:13;4.20;;;2.40;;
58466;SDS011;44255;49.244;7.726;2023-01-26T10:14:45;5.82;;;2.40;;
58466;SDS011;44255;49.244;7.726;2023-01-26T10:17:18;5.63;;;3.08;;
58466;SDS011;44255;49.244;7.726;2023-01-26T10:19:48;5.78;;;2.95;;
58466;SDS011;44255;49.244;7.726;2023-01-26T10:25:12;5.15;;;2.53;;
58466;SDS011;44255;49.244;7.726;2023-01-26T10:27:41;3.65;;;2.63;;
58466;SDS011;44255;49.244;7.726;2023-01-26T10:32:36;5.88;;;2.70;;
58466;SDS011;44255;49.244;7.726;2023-01-26T10:35:03;5.43;;;2.83;;
58466;SDS011;44255;49.244;7.726;2023-01-26T10:40:01;5.70;;;3.22;;
58466;SDS011;44255;49.244;7.726;2023-01-26T10:42:29;5.82;;;3.22;;
58466;SDS011;44255;49.244;7.726;2023-01-26T10:44:56;7.10;;;3.03;;
58466;SDS011;44255;49.244;7.726;2023-01-26T10:47:25;6.65;;;3.30;;
58466;SDS011;44255;49.244;7.726;2023-01-26T10:54:46;5.43;;;3.20;;
58466;SDS011;44255;49.244;7.726;2023-01-26T10:57:25;5.53;;;3.05;;
58466;SDS011;44255;49.244;7.726;2023-01-26T10:59:59;5.72;;;3.20;;
58466;SDS011;44255;49.244;7.726;2023-01-26T11:02:32;5.38;;;3.38;;
58466;SDS011;44255;49.244;7.726;2023-01-26T11:07:34;6.00;;;2.65;;
58466;SDS011;44255;49.244;7.726;2023-01-26T11:13:07;5.03;;;2.78;;
58466;SDS011;44255;49.244;7.726;2023-01-26T11:15:48;5.20;;;3.40;;
58466;SDS011;44255;49.244;7.726;2023-01-26T11:20:55;6.07;;;3.47;;
58466;SDS011;44255;49.244;7.726;2023-01-26T11:28:40;5.18;;;3.10;;
58466;SDS011;44255;49.244;7.726;2023-01-26T11:34:19;3.97;;;3.05;;
58466;SDS011;44255;49.244;7.726;2023-01-26T11:42:57;6.03;;;3.20;;
58466;SDS011;44255;49.244;7.726;2023-01-26T11:56:50;4.03;;;2.40;;
58466;SDS011;44255;49.244;7.726;2023-01-26T11:59:29;3.95;;;2.30;;
58466;SDS011;44255;49.244;7.726;2023-01-26T12:02:05;3.28;;;2.22;;
58466;SDS011;44255;49.244;7.726;2023-01-26T12:04:39;4.38;;;2.72;;
58466;SDS011;44255;49.244;7.726;2023-01-26T12:09:53;4.50;;;2.63;;
58466;SDS011;44255;49.244;7.726;2023-01-26T12:14:51;4.47;;;2.40;;
58466;SDS011;44255;49.244;7.726;2023-01-26T12:25:27;3.97;;;2.35;;
58466;SDS011;44255;49.244;7.726;2023-01-26T12:28:00;4.53;;;2.70;;
58466;SDS011;44255;49.244;7.726;2023-01-26T12:33:12;4.50;;;2.60;;
58466;SDS011;44255;49.244;7.726;2023-01-26T12:43:45;5.70;;;3.20;;
58466;SDS011;44255;49.244;7.726;2023-01-26T12:46:27;5.72;;;3.25;;
58466;SDS011;44255;49.244;7.726;2023-01-26T12:49:20;5.60;;;3.30;;
58466;SDS011;44255;49.244;7.726;2023-01-26T12:51:49;7.22;;;3.63;;
58466;SDS011;44255;49.244;7.726;2023-01-26T12:54:22;7.30;;;3.97;;
58466;SDS011;44255;49.244;7.726;2023-01-26T12:56:56;5.75;;;3.38;;
58466;SDS011;44255;49.244;7.726;2023-01-26T13:01:59;6.18;;;3.47;;
58466;SDS011;44255;49.244;7.726;2023-01-26T13:04:44;7.90;;;4.43;;
58466;SDS011;44255;49.244;7.726;2023-01-26T13:12:48;6.80;;;4.38;;
58466;SDS011;44255;49.244;7.726;2023-01-26T13:15:13;8.85;;;4.85;;
58466;SDS011;44255;49.244;7.726;2023-01-26T13:20:23;10.27;;;4.60;;
58466;SDS011;44255;49.244;7.726;2023-01-26T13:23:35;8.30;;;4.10;;
58466;SDS011;44255;49.244;7.726;2023-01-26T13:34:09;9.48;;;4.57;;
58466;SDS011;44255;49.244;7.726;2023-01-26T13:39:11;10.70;;;4.43;;
58466;SDS011;44255;49.244;7.726;2023-01-26T13:41:46;7.88;;;4.40;;
58466;SDS011;44255;49.244;7.726;2023-01-26T13:44:13;9.35;;;4.65;;
58466;SDS011;44255;49.244;7.726;2023-01-26T13:46:58;8.13;;;4.38;;
58466;SDS011;44255;49.244;7.726;2023-01-26T13:49:37;9.68;;;4.88;;
58466;SDS011;44255;49.244;7.726;2023-01-26T13:52:17;10.95;;;4.80;;
58466;SDS011;44255;49.244;7.726;2023-01-26T13:54:45;12.75;;;6.10;;
58466;SDS011;44255;49.244;7.726;2023-01-26T13:57:19;9.20;;;4.63;;
58466;SDS011;44255;49.244;7.726;2023-01-26T13:59:49;11.68;;;6.25;;
58466;SDS011;44255;49.244;7.726;2023-01-26T14:02:20;11.25;;;5.60;;
58466;SDS011;44255;49.244;7.726;2023-01-26T14:04:53;19.65;;;8.15;;
58466;SDS011;44255;49.244;7.726;2023-01-26T14:07:26;12.73;;;6.43;;
58466;SDS011;44255;49.244;7.726;2023-01-26T14:09:55;13.32;;;6.68;;
58466;SDS011;44255;49.244;7.726;2023-01-26T14:12:30;12.63;;;6.18;;
58466;SDS011;44255;49.244;7.726;2023-01-26T14:14:59;10.75;;;5.57;;
58466;SDS011;44255;49.244;7.726;2023-01-26T14:17:29;12.50;;;6.60;;
58466;SDS011;44255;49.244;7.726;2023-01-26T14:20:00;10.02;;;5.80;;
58466;SDS011;44255;49.244;7.726;2023-01-26T14:22:27;15.27;;;6.68;;
58466;SDS011;44255;49.244;7.726;2023-01-26T14:27:38;11.43;;;5.75;;
58466;SDS011;44255;49.244;7.726;2023-01-26T14:33:01;16.00;;;7.00;;
58466;SDS011;44255;49.244;7.726;2023-01-26T14:35:30;17.20;;;7.30;;
58466;SDS011;44255;49.244;7.726;2023-01-26T14:40:57;17.80;;;7.82;;
58466;SDS011;44255;49.244;7.726;2023-01-26T14:43:24;15.07;;;7.47;;
58466;SDS011;44255;49.244;7.726;2023-01-26T14:46:08;14.77;;;7.25;;
58466;SDS011;44255;49.244;7.726;2023-01-26T14:48:46;18.92;;;7.90;;
58466;SDS011;44255;49.244;7.726;2023-01-26T14:53:53;19.23;;;8.93;;
58466;SDS011;44255;49.244;7.726;2023-01-26T14:56:30;16.05;;;7.70;;
58466;SDS011;44255;49.244;7.726;2023-01-26T14:58:59;18.70;;;8.43;;
58466;SDS011;44255;49.244;7.726;2023-01-26T15:01:25;18.20;;;7.88;;
58466;SDS011;44255;49.244;7.726;2023-01-26T15:03:56;20.48;;;8.57;;
58466;SDS011;44255;49.244;7.726;2023-01-26T15:06:25;16.17;;;7.88;;
58466;SDS011;44255;49.244;7.726;2023-01-26T15:08:54;16.85;;;7.90;;
58466;SDS011;44255;49.244;7.726;2023-01-26T15:11:24;21.10;;;9.00;;
58466;SDS011;44255;49.244;7.726;2023-01-26T15:14:36;18.98;;;8.05;;
58466;SDS011;44255;49.244;7.726;2023-01-26T15:17:28;17.23;;;8.05;;
58466;SDS011;44255;49.244;7.726;2023-01-26T15:20:50;20.77;;;8.75;;
58466;SDS011;44255;49.244;7.726;2023-01-26T15:22:49;16.10;;;7.78;;
58466;SDS011;44255;49.244;7.726;2023-01-26T15:25:21;16.17;;;8.23;;
58466;SDS011;44255;49.244;7.726;2023-01-26T15:27:53;21.23;;;10.73;;
58466;SDS011;44255;49.244;7.726;2023-01-26T15:32:54;17.83;;;8.45;;
58466;SDS011;44255;49.244;7.726;2023-01-26T15:37:47;16.63;;;8.30;;
58466;SDS011;44255;49.244;7.726;2023-01-26T15:42:38;20.05;;;8.43;;
58466;SDS011;44255;49.244;7.726;2023-01-26T15:47:36;20.88;;;9.00;;
58466;SDS011;44255;49.244;7.726;2023-01-26T15:50:01;21.75;;;10.43;;
58466;SDS011;44255;49.244;7.726;2023-01-26T15:54:54;14.30;;;7.60;;
58466;SDS011;44255;49.244;7.726;2023-01-26T15:59:44;73.43;;;43.42;;
58466;SDS011;44255;49.244;7.726;2023-01-26T16:04:39;17.67;;;7.43;;
58466;SDS011;44255;49.244;7.726;2023-01-26T16:09:34;18.83;;;8.32;;
58466;SDS011;44255;49.244;7.726;2023-01-26T16:14:25;18.58;;;8.50;;
58466;SDS011;44255;49.244;7.726;2023-01-26T16:19:16;18.20;;;8.82;;
58466;SDS011;44255;49.244;7.726;2023-01-26T16:21:43;19.83;;;9.00;;
58466;SDS011;44255;49.244;7.726;2023-01-26T16:26:34;18.88;;;8.10;;
58466;SDS011;44255;49.244;7.726;2023-01-26T16:31:27;20.23;;;8.18;;
58466;SDS011;44255;49.244;7.726;2023-01-26T16:33:54;15.32;;;7.32;;
58466;SDS011;44255;49.244;7.726;2023-01-26T16:38:44;17.27;;;7.68;;
58466;SDS011;44255;49.244;7.726;2023-01-26T16:41:15;19.75;;;8.60;;
58466;SDS011;44255;49.244;7.726;2023-01-26T16:43:45;16.80;;;7.50;;
58466;SDS011;44255;49.244;7.726;2023-01-26T16:46:10;20.67;;;9.00;;
58466;SDS011;44255;49.244;7.726;2023-01-26T16:51:10;19.23;;;8.48;;
58466;SDS011;44255;49.244;7.726;2023-01-26T16:53:39;17.25;;;8.95;;
58466;SDS011;44255;49.244;7.726;2023-01-26T16:58:30;13.23;;;7.10;;
58466;SDS011;44255;49.244;7.726;2023-01-26T17:00:57;18.35;;;8.75;;
58466;SDS011;44255;49.244;7.726;2023-01-26T17:05:47;17.88;;;7.88;;
58466;SDS011;44255;49.244;7.726;2023-01-26T17:08:14;15.75;;;7.65;;
58466;SDS011;44255;49.244;7.726;2023-01-26T17:13:08;14.55;;;6.93;;
58466;SDS011;44255;49.244;7.726;2023-01-26T17:15:37;16.50;;;7.82;;
58466;SDS011;44255;49.244;7.726;2023-01-26T17:20:28;21.23;;;8.02;;
58466;SDS011;44255;49.244;7.726;2023-01-26T17:25:18;17.10;;;7.90;;
58466;SDS011;44255;49.244;7.726;2023-01-26T17:30:10;22.27;;;9.05;;
58466;SDS011;44255;49.244;7.726;2023-01-26T17:35:01;22.17;;;8.15;;
58466;SDS011;44255;49.244;7.726;2023-01-26T17:39:53;20.05;;;8.70;;
58466;SDS011;44255;49.244;7.726;2023-01-26T17:42:20;23.77;;;9.65;;
58466;SDS011;44255;49.244;7.726;2023-01-26T17:47:11;19.83;;;8.05;;
58466;SDS011;44255;49.244;7.726;2023-01-26T17:52:03;20.92;;;8.90;;
58466;SDS011;44255;49.244;7.726;2023-01-26T17:54:29;20.08;;;8.48;;
58466;SDS011;44255;49.244;7.726;2023-01-26T17:59:20;18.77;;;8.23;;
58466;SDS011;44255;49.244;7.726;2023-01-26T18:04:10;30.67;;;11.85;;
58466;SDS011;44255;49.244;7.726;2023-01-26T18:09:03;23.42;;;8.88;;
58466;SDS011;44255;49.244;7.726;2023-01-26T18:11:28;19.55;;;8.48;;
58466;SDS011;44255;49.244;7.726;2023-01-26T18:16:19;23.75;;;9.55;;
58466;SDS011;44255;49.244;7.726;2023-01-26T18:18:45;20.17;;;9.63;;
58466;SDS011;44255;49.244;7.726;2023-01-26T18:23:47;27.33;;;9.82;;
58466;SDS011;44255;49.244;7.726;2023-01-26T18:26:14;24.25;;;9.48;;
58466;SDS011;44255;49.244;7.726;2023-01-26T18:28:41;27.58;;;10.38;;
58466;SDS011;44255;49.244;7.726;2023-01-26T18:31:11;24.60;;;10.43;;
58466;SDS011;44255;49.244;7.726;2023-01-26T18:33:47;27.15;;;10.95;;
58466;SDS011;44255;49.244;7.726;2023-01-26T18:38:40;25.00;;;10.48;;
58466;SDS011;44255;49.244;7.726;2023-01-26T18:41:10;35.42;;;13.63;;
58466;SDS011;44255;49.244;7.726;2023-01-26T18:43:36;26.35;;;10.65;;
58466;SDS011;44255;49.244;7.726;2023-01-26T18:48:28;27.83;;;11.55;;
58466;SDS011;44255;49.244;7.726;2023-01-26T18:50:53;43.03;;;16.58;;
58466;SDS011;44255;49.244;7.726;2023-01-26T18:55:44;29.15;;;13.10;;
58466;SDS011;44255;49.244;7.726;2023-01-26T19:00:35;38.63;;;16.35;;
58466;SDS011;44255;49.244;7.726;2023-01-26T19:05:25;24.10;;;12.32;;
58466;SDS011;44255;49.244;7.726;2023-01-26T19:10:16;33.35;;;14.45;;
58466;SDS011;44255;49.244;7.726;2023-01-26T19:15:07;30.33;;;13.30;;
58466;SDS011;44255;49.244;7.726;2023-01-26T19:17:33;37.58;;;16.58;;
58466;SDS011;44255;49.244;7.726;2023-01-26T19:22:23;35.70;;;14.68;;
58466;SDS011;44255;49.244;7.726;2023-01-26T19:27:14;39.80;;;17.17;;
58466;SDS011;44255;49.244;7.726;2023-01-26T19:29:39;44.72;;;19.17;;
58466;SDS011;44255;49.244;7.726;2023-01-26T19:34:30;28.35;;;13.27;;
58466;SDS011;44255;49.244;7.726;2023-01-26T19:36:56;30.27;;;13.07;;
58466;SDS011;44255;49.244;7.726;2023-01-26T19:41:46;26.90;;;12.32;;
58466;SDS011;44255;49.244;7.726;2023-01-26T19:46:37;28.10;;;12.63;;
58466;SDS011;44255;49.244;7.726;2023-01-26T19:51:28;30.95;;;12.52;;
58466;SDS011;44255;49.244;7.726;2023-01-26T19:56:22;34.10;;;13.95;;
58466;SDS011;44255;49.244;7.726;2023-01-26T19:59:00;28.90;;;10.52;;
58466;SDS011;44255;49.244;7.726;2023-01-26T20:01:28;29.65;;;12.27;;
58466;SDS011;44255;49.244;7.726;2023-01-26T20:03:56;30.75;;;12.32;;
58466;SDS011;44255;49.244;7.726;2023-01-26T20:06:23;35.30;;;14.25;;
58466;SDS011;44255;49.244;7.726;2023-01-26T20:08:51;31.38;;;11.65;;
58466;SDS011;44255;49.244;7.726;2023-01-26T20:11:18;32.42;;;13.35;;
58466;SDS011;44255;49.244;7.726;2023-01-26T20:13:51;32.67;;;11.98;;
58466;SDS011;44255;49.244;7.726;2023-01-26T20:16:18;29.67;;;12.35;;
58466;SDS011;44255;49.244;7.726;2023-01-26T20:21:09;31.25;;;11.80;;
58466;SDS011;44255;49.244;7.726;2023-01-26T20:26:09;29.95;;;11.95;;
58466;SDS011;44255;49.244;7.726;2023-01-26T20:28:35;33.67;;;12.48;;
58466;SDS011;44255;49.244;7.726;2023-01-26T20:31:04;33.13;;;12.63;;
58466;SDS011;44255;49.244;7.726;2023-01-26T20:33:35;36.95;;;14.63;;
58466;SDS011;44255;49.244;7.726;2023-01-26T20:36:07;31.33;;;12.80;;
58466;SDS011;44255;49.244;7.726;2023-01-26T20:38:35;31.52;;;11.60;;
58466;SDS011;44255;49.244;7.726;2023-01-26T20:43:36;29.80;;;11.93;;
58466;SDS011;44255;49.244;7.726;2023-01-26T20:46:09;25.77;;;11.10;;
58466;SDS011;44255;49.244;7.726;2023-01-26T20:48:37;30.20;;;13.30;;
58466;SDS011;44255;49.244;7.726;2023-01-26T20:51:14;33.25;;;13.43;;
58466;SDS011;44255;49.244;7.726;2023-01-26T20:53:41;31.67;;;13.27;;
58466;SDS011;44255;49.244;7.726;2023-01-26T20:58:33;30.20;;;12.25;;
58466;SDS011;44255;49.244;7.726;2023-01-26T21:01:06;34.38;;;12.88;;
58466;SDS011;44255;49.244;7.726;2023-01-26T21:03:33;34.60;;;13.50;;
58466;SDS011;44255;49.244;7.726;2023-01-26T21:08:25;33.30;;;12.93;;
58466;SDS011;44255;49.244;7.726;2023-01-26T21:13:17;39.28;;;13.43;;
58466;SDS011;44255;49.244;7.726;2023-01-26T21:18:07;31.63;;;13.50;;
58466;SDS011;44255;49.244;7.726;2023-01-26T21:22:57;36.25;;;13.32;;
58466;SDS011;44255;49.244;7.726;2023-01-26T21:27:49;37.00;;;13.35;;
58466;SDS011;44255;49.244;7.726;2023-01-26T21:30:15;37.22;;;15.18;;
58466;SDS011;44255;49.244;7.726;2023-01-26T21:35:06;39.28;;;14.65;;
58466;SDS011;44255;49.244;7.726;2023-01-26T21:39:57;36.13;;;14.30;;
58466;SDS011;44255;49.244;7.726;2023-01-26T21:44:48;31.73;;;12.38;;
58466;SDS011;44255;49.244;7.726;2023-01-26T21:47:32;34.42;;;11.70;;
58466;SDS011;44255;49.244;7.726;2023-01-26T21:52:23;35.63;;;12.65;;
58466;SDS011;44255;49.244;7.726;2023-01-26T21:55:07;34.45;;;13.40;;
